createdAt,value
2019-05-12T00:03:00.000Z,10.6
2019-05-12T00:08:00.000Z,10.6
2019-05-12T00:13:00.000Z,10.6
2019-05-12T00:18:00.000Z,10.5
2019-05-12T00:23:00.000Z,10.5
2019-05-12T00:28:00.000Z,10.4
2019-05-12T00:33:00.000Z,10.4
2019-05-12T00:38:00.000Z,10.5
2019-05-12T00:43:00.000Z,10.5
2019-05-12T00:48:00.000Z,10.5
2019-05-12T00:53:00.000Z,10.5
2019-05-12T00:58:00.000Z,10.4
2019-05-12T01:03:00.000Z,10.4
2019-05-12T01:08:00.000Z,10.4
2019-05-12T01:13:00.000Z,10.4
2019-05-12T01:18:00.000Z,10.4
2019-05-12T01:23:00.000Z,10.3
2019-05-12T01:29:00.000Z,10.3
2019-05-12T01:34:00.000Z,10.3
2019-05-12T01:39:00.000Z,10.3
2019-05-12T01:44:00.000Z,10.3
2019-05-12T01:49:00.000Z,10.3
2019-05-12T01:54:00.000Z,10.4
2019-05-12T01:59:00.000Z,10.4
2019-05-12T02:04:00.000Z,10.4
2019-05-12T02:09:00.000Z,10.4
2019-05-12T02:14:00.000Z,10.4
2019-05-12T02:19:00.000Z,10.5
2019-05-12T02:24:00.000Z,10.5
2019-05-12T02:29:00.000Z,10.6
2019-05-12T02:34:00.000Z,10.6
2019-05-12T02:39:00.000Z,10.6
2019-05-12T02:44:00.000Z,10.7
2019-05-12T02:49:00.000Z,10.7
2019-05-12T02:54:00.000Z,10.7
2019-05-12T03:00:00.000Z,10.8
2019-05-12T03:05:00.000Z,10.8
2019-05-12T03:10:00.000Z,10.8
2019-05-12T03:15:00.000Z,10.8
2019-05-12T03:20:00.000Z,10.9
2019-05-12T03:25:00.000Z,10.9
2019-05-12T03:30:00.000Z,10.9
2019-05-12T03:35:00.000Z,10.9
2019-05-12T03:40:00.000Z,10.9
2019-05-12T03:45:00.000Z,10.9
2019-05-12T03:50:00.000Z,10.9
2019-05-12T03:55:00.000Z,10.8
2019-05-12T04:00:00.000Z,10.8
2019-05-12T04:05:00.000Z,10.8
2019-05-12T04:10:00.000Z,10.9
2019-05-12T04:15:00.000Z,10.9
2019-05-12T04:20:00.000Z,10.9
2019-05-12T04:25:00.000Z,11.0
2019-05-12T04:31:00.000Z,11.1
2019-05-12T04:36:00.000Z,11.1
2019-05-12T04:41:00.000Z,11.2
2019-05-12T04:46:00.000Z,11.2
2019-05-12T04:51:00.000Z,11.3
2019-05-12T04:56:00.000Z,11.3
2019-05-12T05:01:00.000Z,11.4
2019-05-12T05:06:00.000Z,11.5
2019-05-12T05:11:00.000Z,11.6
2019-05-12T05:16:00.000Z,11.6
2019-05-12T05:21:00.000Z,11.7
2019-05-12T05:26:00.000Z,11.9
2019-05-12T05:31:00.000Z,12.2
2019-05-12T05:36:00.000Z,12.5
2019-05-12T05:41:00.000Z,12.5
2019-05-12T05:46:00.000Z,12.5
2019-05-12T05:51:00.000Z,12.5
2019-05-12T05:56:00.000Z,12.4
2019-05-12T06:02:00.000Z,12.4
2019-05-12T06:07:00.000Z,12.4
2019-05-12T06:12:00.000Z,12.4
2019-05-12T06:17:00.000Z,12.4
2019-05-12T06:22:00.000Z,12.4
2019-05-12T06:27:00.000Z,12.4
2019-05-12T06:32:00.000Z,12.4
2019-05-12T06:37:00.000Z,12.4
2019-05-12T06:42:00.000Z,12.5
2019-05-12T06:47:00.000Z,12.5
2019-05-12T06:52:00.000Z,12.7
2019-05-12T06:57:00.000Z,12.9
2019-05-12T07:02:00.000Z,13.2
2019-05-12T07:07:00.000Z,13.5
2019-05-12T07:12:00.000Z,13.8
2019-05-12T07:18:00.000Z,14.0
2019-05-12T07:23:00.000Z,13.9
2019-05-12T07:28:00.000Z,14.1
2019-05-12T07:33:00.000Z,14.2
2019-05-12T07:38:00.000Z,14.3
2019-05-12T07:43:00.000Z,14.4
2019-05-12T07:48:00.000Z,14.4
2019-05-12T07:53:00.000Z,14.5
2019-05-12T07:58:00.000Z,14.6
2019-05-12T08:03:00.000Z,14.7
2019-05-12T08:08:00.000Z,15.0
2019-05-12T08:13:00.000Z,15.3
2019-05-12T08:18:00.000Z,15.7
2019-05-12T08:23:00.000Z,16.3
2019-05-12T08:28:00.000Z,16.5
2019-05-12T08:33:00.000Z,16.4
2019-05-12T08:38:00.000Z,16.1
2019-05-12T08:43:00.000Z,16.2
2019-05-12T08:48:00.000Z,16.1
2019-05-12T08:54:00.000Z,15.9
2019-05-12T08:59:00.000Z,15.9
2019-05-12T09:04:00.000Z,16.0
2019-05-12T09:09:00.000Z,16.6
2019-05-12T09:14:00.000Z,16.8
2019-05-12T09:19:00.000Z,16.6
2019-05-12T09:24:00.000Z,16.3
2019-05-12T09:29:00.000Z,16.1
2019-05-12T09:34:00.000Z,16.0
2019-05-12T09:39:00.000Z,16.0
2019-05-12T09:44:00.000Z,16.1
2019-05-12T09:49:00.000Z,15.8
2019-05-12T09:54:00.000Z,15.4
2019-05-12T09:59:00.000Z,15.2
2019-05-12T10:04:00.000Z,15.0
2019-05-12T10:10:00.000Z,14.7
2019-05-12T10:15:00.000Z,14.4
2019-05-12T10:20:00.000Z,14.3
2019-05-12T10:25:00.000Z,14.0
2019-05-12T10:30:00.000Z,13.7
2019-05-12T10:35:00.000Z,13.4
2019-05-12T10:40:00.000Z,13.1
2019-05-12T10:45:00.000Z,12.9
2019-05-12T10:50:00.000Z,12.6
2019-05-12T10:55:00.000Z,12.4
2019-05-12T11:00:00.000Z,12.3
2019-05-12T11:05:00.000Z,12.0
2019-05-12T11:10:00.000Z,11.9
2019-05-12T11:15:00.000Z,11.8
2019-05-12T11:20:00.000Z,11.7
2019-05-12T11:25:00.000Z,11.5
2019-05-12T11:30:00.000Z,11.3
2019-05-12T11:35:00.000Z,11.2
2019-05-12T11:40:00.000Z,11.1
2019-05-12T11:45:00.000Z,10.9
2019-05-12T11:50:00.000Z,10.9
2019-05-12T11:55:00.000Z,10.8
2019-05-12T12:00:00.000Z,10.7
2019-05-12T12:06:00.000Z,10.6
2019-05-12T12:11:00.000Z,10.6
2019-05-12T12:16:00.000Z,10.5
2019-05-12T12:21:00.000Z,10.4
2019-05-12T12:26:00.000Z,10.2
2019-05-12T12:31:00.000Z,10.1
2019-05-12T12:36:00.000Z,10.0
2019-05-12T12:41:00.000Z,9.9
2019-05-12T12:46:00.000Z,9.8
2019-05-12T12:52:00.000Z,9.8
2019-05-12T12:57:00.000Z,9.7
2019-05-12T13:02:00.000Z,9.7
2019-05-12T13:07:00.000Z,9.6
2019-05-12T13:12:00.000Z,9.6
2019-05-12T13:17:00.000Z,9.6
2019-05-12T13:22:00.000Z,9.6
2019-05-12T13:27:00.000Z,9.6
2019-05-12T13:32:00.000Z,9.6
2019-05-12T13:37:00.000Z,9.6
2019-05-12T13:42:00.000Z,9.6
2019-05-12T13:47:00.000Z,9.5
2019-05-12T13:52:00.000Z,9.5
2019-05-12T13:57:00.000Z,9.5
2019-05-12T14:02:00.000Z,9.5
2019-05-12T14:08:00.000Z,9.4
2019-05-12T14:13:00.000Z,9.4
2019-05-12T14:18:00.000Z,9.4
2019-05-12T14:23:00.000Z,9.4
2019-05-12T14:28:00.000Z,9.4
2019-05-12T14:33:00.000Z,9.3
2019-05-12T14:38:00.000Z,9.3
2019-05-12T14:43:00.000Z,9.3
2019-05-12T14:48:00.000Z,9.3
2019-05-12T14:53:00.000Z,9.3
2019-05-12T14:58:00.000Z,9.4
2019-05-12T15:04:00.000Z,9.4
2019-05-12T15:09:00.000Z,9.3
2019-05-12T15:14:00.000Z,9.3
2019-05-12T15:19:00.000Z,9.4
2019-05-12T15:24:00.000Z,9.4
2019-05-12T15:29:00.000Z,9.4
2019-05-12T15:34:00.000Z,9.3
2019-05-12T15:39:00.000Z,9.4
2019-05-12T15:44:00.000Z,9.4
2019-05-12T15:49:00.000Z,9.4
2019-05-12T15:54:00.000Z,9.4
2019-05-12T15:59:00.000Z,9.4
2019-05-12T16:04:00.000Z,9.3
2019-05-12T16:09:00.000Z,9.3
2019-05-12T16:14:00.000Z,9.3
2019-05-12T16:19:00.000Z,9.3
2019-05-12T16:24:00.000Z,9.3
2019-05-12T16:29:00.000Z,9.3
2019-05-12T16:34:00.000Z,9.2
2019-05-12T16:40:00.000Z,9.2
2019-05-12T16:45:00.000Z,9.2
2019-05-12T16:50:00.000Z,9.2
2019-05-12T16:55:00.000Z,9.2
2019-05-12T17:00:00.000Z,9.2
2019-05-12T17:05:00.000Z,9.2
2019-05-12T17:10:00.000Z,9.2
2019-05-12T17:15:00.000Z,9.2
2019-05-12T17:20:00.000Z,9.2
2019-05-12T17:25:00.000Z,9.2
2019-05-12T17:30:00.000Z,9.2
2019-05-12T17:35:00.000Z,9.2
2019-05-12T17:40:00.000Z,9.2
2019-05-12T17:45:00.000Z,9.2
2019-05-12T17:50:00.000Z,9.2
2019-05-12T17:55:00.000Z,9.2
2019-05-12T18:00:00.000Z,9.1
2019-05-12T18:05:00.000Z,9.2
2019-05-12T18:10:00.000Z,9.1
2019-05-12T18:15:00.000Z,9.2
2019-05-12T18:21:00.000Z,9.1
2019-05-12T18:26:00.000Z,9.2
2019-05-12T18:31:00.000Z,9.2
2019-05-12T18:36:00.000Z,9.2
2019-05-12T18:41:00.000Z,9.1
2019-05-12T18:46:00.000Z,9.1
2019-05-12T18:51:00.000Z,9.1
2019-05-12T18:56:00.000Z,9.2
2019-05-12T19:01:00.000Z,9.2
2019-05-12T19:06:00.000Z,9.2
2019-05-12T19:11:00.000Z,9.1
2019-05-12T19:16:00.000Z,9.1
2019-05-12T19:21:00.000Z,9.2
2019-05-12T19:27:00.000Z,9.2
2019-05-12T19:32:00.000Z,9.3
2019-05-12T19:37:00.000Z,9.3
2019-05-12T19:42:00.000Z,9.3
2019-05-12T19:47:00.000Z,9.3
2019-05-12T19:52:00.000Z,9.3
2019-05-12T19:57:00.000Z,9.3
2019-05-12T20:02:00.000Z,9.3
2019-05-12T20:07:00.000Z,9.3
2019-05-12T20:12:00.000Z,9.3
2019-05-12T20:17:00.000Z,9.3
2019-05-12T20:22:00.000Z,9.3
2019-05-12T20:27:00.000Z,9.3
2019-05-12T20:32:00.000Z,9.3
2019-05-12T20:42:00.000Z,9.3
2019-05-12T20:48:00.000Z,9.3
2019-05-12T20:53:00.000Z,9.3
2019-05-12T20:58:00.000Z,9.3
2019-05-12T21:03:00.000Z,9.3
2019-05-12T21:08:00.000Z,9.4
2019-05-12T21:13:00.000Z,9.4
2019-05-12T21:19:00.000Z,9.4
2019-05-12T21:24:00.000Z,9.3
2019-05-12T21:29:00.000Z,9.4
2019-05-12T21:34:00.000Z,9.4
2019-05-12T21:39:00.000Z,9.4
2019-05-12T21:44:00.000Z,9.4
2019-05-12T21:49:00.000Z,9.3
2019-05-12T21:54:00.000Z,9.3
2019-05-12T21:59:00.000Z,9.3
2019-05-12T22:04:00.000Z,9.3
2019-05-12T22:09:00.000Z,9.2
2019-05-12T22:14:00.000Z,9.2
2019-05-12T22:19:00.000Z,9.2
2019-05-12T22:24:00.000Z,9.2
2019-05-12T22:29:00.000Z,9.2
2019-05-12T22:34:00.000Z,9.2
2019-05-12T22:39:00.000Z,9.2
2019-05-12T22:44:00.000Z,9.2
2019-05-12T22:50:00.000Z,9.2
2019-05-12T22:55:00.000Z,9.3
2019-05-12T23:00:00.000Z,9.3
2019-05-12T23:05:00.000Z,9.3
2019-05-12T23:10:00.000Z,9.3
2019-05-12T23:15:00.000Z,9.4
2019-05-12T23:20:00.000Z,9.4
2019-05-12T23:25:00.000Z,9.4
2019-05-12T23:30:00.000Z,9.4
2019-05-12T23:35:00.000Z,9.4
2019-05-12T23:40:00.000Z,9.4
2019-05-12T23:45:00.000Z,9.4
2019-05-12T23:50:00.000Z,9.5
2019-05-12T23:55:00.000Z,9.5
